createdAt,value
2024-05-09T00:00:15.468Z,1056.00
2024-05-09T00:01:09.709Z,1056.00
2024-05-09T00:02:08.720Z,1055.00
2024-05-09T00:03:10.162Z,1054.00
2024-05-09T00:04:08.800Z,1053.00
2024-05-09T00:05:08.814Z,1054.00
2024-05-09T00:06:08.718Z,1054.00
2024-05-09T00:07:08.859Z,1051.00
2024-05-09T00:08:08.728Z,1049.00
2024-05-09T00:09:08.685Z,1050.00
2024-05-09T00:10:14.682Z,1052.00
2024-05-09T00:11:09.803Z,1053.00
2024-05-09T00:12:08.938Z,1053.00
2024-05-09T00:13:09.120Z,1058.00
2024-05-09T00:14:08.735Z,1056.00
2024-05-09T00:15:08.671Z,1056.00
2024-05-09T00:16:08.686Z,1053.00
2024-05-09T00:17:08.742Z,1053.00
2024-05-09T00:18:09.006Z,1055.00
2024-05-09T00:19:08.794Z,1056.00
2024-05-09T00:20:17.414Z,1056.00
2024-05-09T00:21:09.907Z,1055.00
2024-05-09T00:22:08.706Z,1053.00
2024-05-09T00:23:09.251Z,1054.00
2024-05-09T00:24:08.721Z,1053.00
2024-05-09T00:25:08.779Z,1054.00
2024-05-09T00:26:08.768Z,1057.00
2024-05-09T00:27:11.276Z,1056.00
2024-05-09T00:28:08.724Z,1054.00
2024-05-09T00:29:08.839Z,1055.00
2024-05-09T00:30:14.265Z,1057.00
2024-05-09T00:31:09.757Z,1058.00
2024-05-09T00:32:08.872Z,1056.00
2024-05-09T00:33:10.374Z,1053.00
2024-05-09T00:34:09.260Z,1053.00
2024-05-09T00:35:09.147Z,1055.00
2024-05-09T00:36:09.094Z,1056.00
2024-05-09T00:37:09.096Z,1057.00
2024-05-09T00:38:09.170Z,1055.00
2024-05-09T00:39:09.134Z,1057.00
2024-05-09T00:40:18.253Z,1055.00
2024-05-09T00:41:10.226Z,1053.00
2024-05-09T00:42:09.252Z,1053.00
2024-05-09T00:43:09.205Z,1053.00
2024-05-09T00:44:09.378Z,1051.00
2024-05-09T00:45:09.216Z,1050.00
2024-05-09T00:46:09.207Z,1049.00
2024-05-09T00:47:09.472Z,1051.00
2024-05-09T00:48:10.495Z,1052.00
2024-05-09T00:49:09.387Z,1050.00
2024-05-09T00:50:15.465Z,1048.00
2024-05-09T00:51:10.378Z,1044.00
2024-05-09T00:52:09.237Z,1046.00
2024-05-09T00:53:09.263Z,1047.00
2024-05-09T00:54:09.227Z,1048.00
2024-05-09T00:55:09.221Z,1049.00
2024-05-09T00:56:09.316Z,1047.00
2024-05-09T00:57:09.224Z,1047.00
2024-05-09T00:58:09.302Z,1048.00
2024-05-09T00:59:09.327Z,1051.00
2024-05-09T01:00:22.167Z,1052.00
2024-05-09T01:01:10.249Z,1052.00
2024-05-09T01:02:09.375Z,1051.00
2024-05-09T01:03:11.032Z,1048.00
2024-05-09T01:04:09.491Z,1046.00
2024-05-09T01:05:09.324Z,1049.00
2024-05-09T01:06:09.279Z,1050.00
2024-05-09T01:07:09.248Z,1054.00
2024-05-09T01:08:09.846Z,1053.00
2024-05-09T01:09:09.256Z,1051.00
2024-05-09T01:10:14.312Z,1050.00
2024-05-09T01:11:10.368Z,1049.00
2024-05-09T01:12:09.548Z,1048.00
2024-05-09T01:13:09.274Z,1051.00
2024-05-09T01:14:09.397Z,1054.00
2024-05-09T01:15:09.268Z,1053.00
2024-05-09T01:16:09.284Z,1051.00
2024-05-09T01:17:09.337Z,1050.00
2024-05-09T01:18:10.001Z,1052.00
2024-05-09T01:19:09.379Z,1051.00
2024-05-09T01:20:12.898Z,1047.00
2024-05-09T01:21:10.434Z,1047.00
2024-05-09T01:22:09.284Z,1045.00
2024-05-09T01:23:10.043Z,1044.00
2024-05-09T01:24:09.265Z,1046.00
2024-05-09T01:25:09.277Z,1045.00
2024-05-09T01:26:09.321Z,1045.00
2024-05-09T01:27:09.296Z,1048.00
2024-05-09T01:28:09.284Z,1048.00
2024-05-09T01:29:09.383Z,1049.00
2024-05-09T01:30:14.598Z,1049.00
2024-05-09T01:31:10.302Z,1046.00
2024-05-09T01:32:09.391Z,1045.00
2024-05-09T01:33:11.215Z,1044.00
2024-05-09T01:34:09.475Z,1043.00
2024-05-09T01:35:09.394Z,1042.00
2024-05-09T01:36:09.291Z,1042.00
2024-05-09T01:37:09.336Z,1042.00
2024-05-09T01:38:09.360Z,1043.00
2024-05-09T01:39:09.308Z,1046.00
2024-05-09T01:40:14.838Z,1049.00
2024-05-09T01:41:10.313Z,1049.00
2024-05-09T01:42:09.321Z,1048.00
2024-05-09T01:43:10.576Z,1049.00
2024-05-09T01:44:09.348Z,1048.00
2024-05-09T01:45:09.331Z,1049.00
2024-05-09T01:46:09.313Z,1049.00
2024-05-09T01:47:09.566Z,1049.00
2024-05-09T01:48:09.783Z,1050.00
2024-05-09T01:49:09.451Z,1050.00
2024-05-09T01:50:11.118Z,1050.00
2024-05-09T01:51:09.669Z,1051.00
2024-05-09T01:52:09.516Z,1050.00
2024-05-09T01:53:10.066Z,1049.00
2024-05-09T01:54:09.586Z,1046.00
2024-05-09T01:55:09.657Z,1043.00
2024-05-09T01:56:09.797Z,1043.00
2024-05-09T01:57:09.734Z,1042.00
2024-05-09T01:58:10.123Z,1040.00
2024-05-09T01:59:09.922Z,1041.00
2024-05-09T02:00:10.504Z,1043.00
2024-05-09T02:01:09.962Z,1045.00
2024-05-09T02:02:10.163Z,1048.00
2024-05-09T02:03:10.932Z,1048.00
2024-05-09T02:04:10.188Z,1051.00
2024-05-09T02:05:10.142Z,1053.00
2024-05-09T02:06:10.168Z,1049.00
2024-05-09T02:07:10.012Z,1049.00
2024-05-09T02:08:10.062Z,1048.00
2024-05-09T02:09:10.016Z,1048.00
2024-05-09T02:10:16.416Z,1046.00
2024-05-09T02:11:11.219Z,1048.00
2024-05-09T02:12:10.119Z,1047.00
2024-05-09T02:13:10.100Z,1046.00
2024-05-09T02:14:10.082Z,1048.00
2024-05-09T02:15:09.995Z,1047.00
2024-05-09T02:16:10.052Z,1046.00
2024-05-09T02:17:10.127Z,1045.00
2024-05-09T02:18:10.548Z,1045.00
2024-05-09T02:19:10.162Z,1042.00
2024-05-09T02:20:13.279Z,1044.00
2024-05-09T02:21:11.126Z,1046.00
2024-05-09T02:22:10.087Z,1046.00
2024-05-09T02:23:10.194Z,1047.00
2024-05-09T02:24:10.024Z,1046.00
2024-05-09T02:25:10.078Z,1047.00
2024-05-09T02:26:10.113Z,1046.00
2024-05-09T02:27:10.072Z,1044.00
2024-05-09T02:28:10.079Z,1045.00
2024-05-09T02:29:10.072Z,1047.00
2024-05-09T02:30:18.692Z,1045.00
2024-05-09T02:31:11.055Z,1042.00
2024-05-09T02:32:10.163Z,1041.00
2024-05-09T02:33:11.982Z,1040.00
2024-05-09T02:34:10.135Z,1040.00
2024-05-09T02:35:10.192Z,1041.00
2024-05-09T02:36:10.047Z,1041.00
2024-05-09T02:37:10.061Z,1040.00
2024-05-09T02:38:10.458Z,1042.00
2024-05-09T02:39:10.048Z,1043.00
2024-05-09T02:40:14.597Z,1041.00
2024-05-09T02:41:11.196Z,1036.00
2024-05-09T02:42:10.077Z,1035.00
2024-05-09T02:43:11.304Z,1035.00
2024-05-09T02:44:10.117Z,1035.00
2024-05-09T02:45:10.061Z,1037.00
2024-05-09T02:46:10.115Z,1038.00
2024-05-09T02:47:10.161Z,1036.00
2024-05-09T02:48:10.289Z,1038.00
2024-05-09T02:49:10.172Z,1039.00
2024-05-09T02:50:13.303Z,1041.00
2024-05-09T02:51:11.361Z,1041.00
2024-05-09T02:52:10.122Z,1042.00
2024-05-09T02:53:11.040Z,1041.00
2024-05-09T02:54:10.142Z,1041.00
2024-05-09T02:55:10.111Z,1041.00
2024-05-09T02:56:10.188Z,1040.00
2024-05-09T02:57:10.166Z,1039.00
2024-05-09T02:58:10.336Z,1038.00
2024-05-09T02:59:10.170Z,1036.00
2024-05-09T03:00:18.308Z,1036.00
2024-05-09T03:01:11.187Z,1039.00
2024-05-09T03:02:10.332Z,1039.00
2024-05-09T03:03:12.410Z,1039.00
2024-05-09T03:04:10.224Z,1039.00
2024-05-09T03:05:10.168Z,1037.00
2024-05-09T03:06:10.164Z,1034.00
2024-05-09T03:07:10.167Z,1031.00
2024-05-09T03:08:10.200Z,1032.00
2024-05-09T03:09:10.164Z,1034.00
2024-05-09T03:10:18.271Z,1034.00
2024-05-09T03:11:11.255Z,1033.00
2024-05-09T03:12:10.285Z,1031.00
2024-05-09T03:13:10.147Z,1032.00
2024-05-09T03:14:10.242Z,1036.00
2024-05-09T03:15:10.140Z,1034.00
2024-05-09T03:16:10.143Z,1032.00
2024-05-09T03:17:10.200Z,1030.00
2024-05-09T03:18:10.333Z,1027.00
2024-05-09T03:19:10.320Z,1027.00
2024-05-09T03:20:17.513Z,1029.00
2024-05-09T03:21:11.258Z,1031.00
2024-05-09T03:22:10.170Z,1031.00
2024-05-09T03:23:10.518Z,1029.00
2024-05-09T03:24:10.189Z,1029.00
2024-05-09T03:25:10.202Z,1027.00
2024-05-09T03:26:10.222Z,1028.00
2024-05-09T03:27:10.179Z,1027.00
2024-05-09T03:28:10.225Z,1026.00
2024-05-09T03:29:10.241Z,1025.00
2024-05-09T03:30:10.213Z,1028.00
2024-05-09T03:31:10.220Z,1027.00
2024-05-09T03:32:10.236Z,1028.00
2024-05-09T03:33:10.508Z,1029.00
2024-05-09T03:34:10.331Z,1030.00
2024-05-09T03:35:10.338Z,1030.00
2024-05-09T03:36:11.414Z,1029.00
2024-05-09T03:37:10.409Z,1027.00
2024-05-09T03:38:10.530Z,1027.00
2024-05-09T03:39:10.502Z,1027.00
2024-05-09T03:40:17.559Z,1030.00
2024-05-09T03:41:11.554Z,1034.00
2024-05-09T03:42:10.542Z,1034.00
2024-05-09T03:43:10.540Z,1029.00
2024-05-09T03:44:10.576Z,1028.00
2024-05-09T03:45:10.536Z,1026.00
2024-05-09T03:46:10.548Z,1024.00
2024-05-09T03:47:10.593Z,1024.00
2024-05-09T03:48:10.773Z,1023.00
2024-05-09T03:49:10.732Z,1022.00
2024-05-09T03:50:18.156Z,1024.00
2024-05-09T03:51:11.545Z,1025.00
2024-05-09T03:52:10.532Z,1025.00
2024-05-09T03:53:10.739Z,1026.00
2024-05-09T03:54:10.541Z,1025.00
2024-05-09T03:55:10.546Z,1025.00
2024-05-09T03:56:10.651Z,1027.00
2024-05-09T03:57:10.535Z,1028.00
2024-05-09T03:58:10.536Z,1028.00
2024-05-09T03:59:10.657Z,1022.00
2024-05-09T04:00:17.815Z,1022.00
2024-05-09T04:01:11.602Z,1022.00
2024-05-09T04:02:10.661Z,1024.00
2024-05-09T04:03:12.507Z,1022.00
2024-05-09T04:04:10.600Z,1021.00
2024-05-09T04:05:10.594Z,1021.00
2024-05-09T04:06:10.549Z,1018.00
2024-05-09T04:07:10.595Z,1021.00
2024-05-09T04:08:11.237Z,1022.00
2024-05-09T04:09:10.587Z,1020.00
2024-05-09T04:10:20.592Z,1021.00
2024-05-09T04:11:11.709Z,1019.00
2024-05-09T04:12:10.775Z,1019.00
2024-05-09T04:13:10.579Z,1020.00
2024-05-09T04:14:10.605Z,1022.00
2024-05-09T04:15:13.234Z,1020.00
2024-05-09T04:16:11.491Z,1021.00
2024-05-09T04:17:10.651Z,1021.00
2024-05-09T04:18:10.795Z,1021.00
2024-05-09T04:19:10.633Z,1023.00
2024-05-09T04:20:18.226Z,1024.00
2024-05-09T04:21:11.661Z,1024.00
2024-05-09T04:22:10.655Z,1023.00
2024-05-09T04:23:10.753Z,1021.00
2024-05-09T04:24:10.618Z,1025.00
2024-05-09T04:25:10.647Z,1023.00
2024-05-09T04:26:10.664Z,1023.00
2024-05-09T04:27:10.620Z,1024.00
2024-05-09T04:28:10.625Z,1022.00
2024-05-09T04:29:10.656Z,1022.00
2024-05-09T04:30:18.539Z,1020.00
2024-05-09T04:31:11.650Z,1017.00
2024-05-09T04:32:10.754Z,1021.00
2024-05-09T04:33:12.706Z,1022.00
2024-05-09T04:34:10.757Z,1024.00
2024-05-09T04:35:10.650Z,1023.00
2024-05-09T04:36:10.635Z,1022.00
2024-05-09T04:37:10.659Z,1024.00
2024-05-09T04:38:18.273Z,1026.00
2024-05-09T04:39:18.165Z,1017.00
2024-05-09T04:40:27.665Z,1013.00
2024-05-09T04:41:19.199Z,1015.00
2024-05-09T04:42:18.207Z,1013.00
2024-05-09T04:43:18.193Z,1012.00
2024-05-09T04:44:18.195Z,1012.00
2024-05-09T04:45:18.184Z,1013.00
2024-05-09T04:46:18.183Z,1012.00
2024-05-09T04:47:18.351Z,1012.00
2024-05-09T04:48:18.370Z,1012.00
2024-05-09T04:49:18.428Z,1010.00
2024-05-09T04:50:29.008Z,1006.00
2024-05-09T04:51:19.207Z,1005.00
2024-05-09T04:52:18.198Z,1006.00
2024-05-09T04:53:18.389Z,1004.00
2024-05-09T04:55:18.218Z,1004.00
2024-05-09T04:56:18.258Z,1004.00
2024-05-09T04:57:18.191Z,1007.00
2024-05-09T04:58:18.235Z,1008.00
2024-05-09T04:59:18.247Z,1008.00
2024-05-09T05:00:28.554Z,1006.00
2024-05-09T05:01:19.259Z,1006.00
2024-05-09T05:02:18.296Z,1009.00
2024-05-09T05:03:18.577Z,1011.00
2024-05-09T05:04:18.448Z,1010.00
2024-05-09T05:05:18.318Z,1011.00
2024-05-09T05:06:18.243Z,1010.00
2024-05-09T05:07:18.243Z,1013.00
2024-05-09T05:08:19.204Z,1010.00
2024-05-09T05:09:18.262Z,1009.00
2024-05-09T05:10:25.298Z,1009.00
2024-05-09T05:11:19.344Z,1007.00
2024-05-09T05:12:18.414Z,1008.00
2024-05-09T05:13:19.205Z,1006.00
2024-05-09T05:14:18.621Z,1006.00
2024-05-09T05:15:18.282Z,1008.00
2024-05-09T05:16:18.260Z,1009.00
2024-05-09T05:17:18.425Z,1009.00
2024-05-09T05:18:18.974Z,1008.00
2024-05-09T05:19:18.486Z,1012.00
2024-05-09T05:20:27.156Z,1012.00
2024-05-09T05:21:19.476Z,1012.00
2024-05-09T05:22:18.294Z,1012.00
2024-05-09T05:23:18.376Z,1011.00
2024-05-09T05:24:18.293Z,1011.00
2024-05-09T05:25:18.301Z,1013.00
2024-05-09T05:26:18.318Z,1012.00
2024-05-09T05:27:18.297Z,1012.00
2024-05-09T05:28:18.297Z,1013.00
2024-05-09T05:29:20.838Z,1012.00
2024-05-09T05:30:25.033Z,1008.00
2024-05-09T05:31:19.363Z,1010.00
2024-05-09T05:32:18.457Z,1010.00
2024-05-09T05:33:18.948Z,1010.00
2024-05-09T05:34:18.279Z,1013.00
2024-05-09T05:35:18.292Z,1012.00
2024-05-09T05:36:18.316Z,1012.00
2024-05-09T05:37:18.294Z,1012.00
2024-05-09T05:38:18.375Z,1013.00
2024-05-09T05:39:18.327Z,1014.00
2024-05-09T05:40:27.997Z,1011.00
2024-05-09T05:41:19.371Z,1011.00
2024-05-09T05:42:18.322Z,1006.00
2024-05-09T05:43:18.415Z,1005.00
2024-05-09T05:44:18.332Z,1003.00
2024-05-09T05:45:18.333Z,1004.00
2024-05-09T05:46:18.347Z,1005.00
2024-05-09T05:47:18.480Z,1001.00
2024-05-09T05:48:18.918Z,998.00
2024-05-09T05:49:18.480Z,1000.00
2024-05-09T05:50:27.298Z,997.00
2024-05-09T05:51:19.351Z,1001.00
2024-05-09T05:52:18.343Z,1001.00
2024-05-09T05:53:18.409Z,1001.00
2024-05-09T05:54:18.351Z,1001.00
2024-05-09T05:55:18.326Z,1003.00
2024-05-09T05:56:18.347Z,1006.00
2024-05-09T05:57:18.354Z,1001.00
2024-05-09T05:58:18.382Z,1001.00
2024-05-09T05:59:18.381Z,1002.00
2024-05-09T06:00:29.133Z,998.00
2024-05-09T06:01:19.358Z,997.00
2024-05-09T06:02:18.445Z,995.00
2024-05-09T06:03:18.432Z,994.00
2024-05-09T06:04:18.545Z,997.00
2024-05-09T06:05:18.501Z,996.00
2024-05-09T06:06:18.372Z,995.00
2024-05-09T06:07:18.376Z,994.00
2024-05-09T06:08:18.428Z,995.00
2024-05-09T06:09:18.373Z,994.00
2024-05-09T06:10:25.192Z,995.00
2024-05-09T06:11:19.518Z,998.00
2024-05-09T06:12:18.542Z,999.00
2024-05-09T06:13:18.384Z,996.00
2024-05-09T06:14:18.428Z,996.00
2024-05-09T06:15:18.397Z,996.00
2024-05-09T06:16:18.390Z,994.00
2024-05-09T06:17:18.522Z,992.00
2024-05-09T06:18:18.775Z,993.00
2024-05-09T06:19:18.559Z,994.00
2024-05-09T06:20:23.999Z,994.00
2024-05-09T06:21:19.679Z,995.00
2024-05-09T06:22:18.403Z,996.00
2024-05-09T06:23:18.567Z,996.00
2024-05-09T06:24:18.415Z,993.00
2024-05-09T06:25:18.431Z,992.00
2024-05-09T06:26:18.464Z,990.00
2024-05-09T06:27:18.412Z,990.00
2024-05-09T06:28:18.403Z,992.00
2024-05-09T06:29:18.451Z,991.00
2024-05-09T06:31:18.410Z,992.00
2024-05-09T06:32:18.480Z,992.00
2024-05-09T06:33:18.739Z,990.00
2024-05-09T06:34:18.649Z,987.00
2024-05-09T06:35:18.455Z,988.00
2024-05-09T06:36:18.437Z,992.00
2024-05-09T06:37:18.438Z,991.00
2024-05-09T06:38:18.506Z,992.00
2024-05-09T06:39:18.418Z,996.00
2024-05-09T06:40:25.454Z,997.00
2024-05-09T06:41:19.492Z,997.00
2024-05-09T06:42:18.438Z,998.00
2024-05-09T06:43:19.695Z,998.00
2024-05-09T06:44:18.458Z,998.00
2024-05-09T06:45:18.460Z,997.00
2024-05-09T06:46:18.438Z,995.00
2024-05-09T06:47:18.533Z,997.00
2024-05-09T06:48:19.158Z,997.00
2024-05-09T06:49:18.628Z,994.00
2024-05-09T06:50:23.923Z,993.00
2024-05-09T06:51:19.498Z,994.00
2024-05-09T06:52:18.460Z,995.00
2024-05-09T06:53:18.580Z,998.00
2024-05-09T06:54:18.509Z,999.00
2024-05-09T06:55:18.480Z,998.00
2024-05-09T06:56:18.518Z,998.00
2024-05-09T06:57:18.474Z,998.00
2024-05-09T06:58:18.458Z,996.00
2024-05-09T06:59:18.523Z,994.00
2024-05-09T07:00:26.915Z,995.00
2024-05-09T07:01:19.514Z,996.00
2024-05-09T07:02:18.564Z,996.00
2024-05-09T07:03:19.547Z,997.00
2024-05-09T07:04:18.553Z,998.00
2024-05-09T07:05:18.602Z,996.00
2024-05-09T07:06:18.543Z,995.00
2024-05-09T07:07:18.562Z,995.00
2024-05-09T07:08:18.899Z,995.00
2024-05-09T07:09:18.505Z,994.00
2024-05-09T07:10:25.725Z,997.00
2024-05-09T07:11:19.698Z,997.00
2024-05-09T07:12:18.578Z,998.00
2024-05-09T07:13:18.521Z,997.00
2024-05-09T07:14:18.683Z,997.00
2024-05-09T07:15:18.495Z,996.00
2024-05-09T07:16:18.574Z,996.00
2024-05-09T07:17:18.602Z,998.00
2024-05-09T07:18:19.437Z,999.00
2024-05-09T07:19:18.762Z,997.00
2024-05-09T07:20:23.756Z,998.00
2024-05-09T07:21:19.769Z,994.00
2024-05-09T07:22:18.518Z,993.00
2024-05-09T07:23:18.764Z,992.00
2024-05-09T07:24:18.584Z,993.00
2024-05-09T07:25:18.514Z,991.00
2024-05-09T07:26:18.770Z,993.00
2024-05-09T07:27:18.540Z,994.00
2024-05-09T07:28:18.677Z,996.00
2024-05-09T07:29:18.673Z,996.00
2024-05-09T07:30:23.817Z,997.00
2024-05-09T07:31:19.568Z,995.00
2024-05-09T07:32:18.635Z,995.00
2024-05-09T07:33:19.549Z,995.00
2024-05-09T07:34:18.685Z,995.00
2024-05-09T07:35:18.563Z,996.00
2024-05-09T07:36:18.540Z,998.00
2024-05-09T07:37:18.539Z,1000.00
2024-05-09T07:38:18.712Z,1004.00
2024-05-09T07:39:18.614Z,1006.00
2024-05-09T07:40:28.455Z,1005.00
2024-05-09T07:41:19.566Z,1006.00
2024-05-09T07:42:18.567Z,1005.00
2024-05-09T07:43:18.551Z,1003.00
2024-05-09T07:44:18.578Z,1001.00
2024-05-09T07:47:14.450Z,1000.00
2024-05-09T07:48:29.199Z,998.00
2024-05-09T07:51:31.671Z,998.00
2024-05-09T07:53:38.224Z,998.00
2024-05-09T07:54:19.779Z,996.00
2024-05-09T07:55:18.833Z,997.00
2024-05-09T07:56:20.291Z,995.00
2024-05-09T07:57:18.716Z,996.00
2024-05-09T07:58:18.666Z,997.00
2024-05-09T07:59:18.590Z,998.00
2024-05-09T08:00:23.815Z,997.00
2024-05-09T08:01:20.198Z,996.00
2024-05-09T08:02:18.712Z,998.00
2024-05-09T08:03:18.817Z,998.00
2024-05-09T08:04:18.665Z,997.00
2024-05-09T08:05:18.776Z,996.00
2024-05-09T08:06:18.621Z,996.00
2024-05-09T08:07:18.645Z,998.00
2024-05-09T08:08:18.589Z,997.00
2024-05-09T08:09:21.235Z,996.00
2024-05-09T08:10:22.245Z,996.00
2024-05-09T08:11:19.674Z,997.00
2024-05-09T08:12:18.607Z,999.00
2024-05-09T08:13:18.783Z,1000.00
2024-05-09T08:14:18.597Z,998.00
2024-05-09T08:15:18.704Z,998.00
2024-05-09T08:16:18.681Z,997.00
2024-05-09T08:17:18.672Z,1000.00
2024-05-09T08:18:18.702Z,997.00
2024-05-09T08:19:18.716Z,994.00
2024-05-09T08:20:26.875Z,990.00
2024-05-09T08:21:19.592Z,990.00
2024-05-09T08:22:18.636Z,994.00
2024-05-09T08:23:18.606Z,997.00
2024-05-09T08:24:18.647Z,999.00
2024-05-09T08:25:18.696Z,998.00
2024-05-09T08:26:18.654Z,999.00
2024-05-09T08:27:18.636Z,999.00
2024-05-09T08:28:18.716Z,997.00
2024-05-09T08:29:18.613Z,996.00
2024-05-09T08:30:24.938Z,996.00
2024-05-09T08:31:19.757Z,997.00
2024-05-09T08:32:18.658Z,996.00
2024-05-09T08:33:18.719Z,995.00
2024-05-09T08:34:18.782Z,996.00
2024-05-09T08:35:18.653Z,995.00
2024-05-09T08:36:18.628Z,992.00
2024-05-09T08:37:22.518Z,991.00
2024-05-09T08:38:19.670Z,992.00
2024-05-09T08:39:18.656Z,993.00
2024-05-09T08:40:27.271Z,991.00
2024-05-09T08:41:19.662Z,989.00
2024-05-09T08:42:18.764Z,984.00
2024-05-09T08:43:18.859Z,987.00
2024-05-09T08:44:18.697Z,987.00
2024-05-09T08:45:18.663Z,987.00
2024-05-09T08:46:19.063Z,985.00
2024-05-09T08:47:18.712Z,985.00
2024-05-09T08:48:18.957Z,984.00
2024-05-09T08:49:18.744Z,983.00
2024-05-09T08:50:28.912Z,983.00
2024-05-09T08:51:19.690Z,984.00
2024-05-09T08:52:18.829Z,984.00
2024-05-09T08:53:18.689Z,982.00
2024-05-09T08:54:18.685Z,980.00
2024-05-09T08:55:18.697Z,981.00
2024-05-09T08:56:18.686Z,980.00
2024-05-09T08:57:18.737Z,978.00
2024-05-09T08:58:18.744Z,977.00
2024-05-09T08:59:18.710Z,973.00
2024-05-09T09:00:29.245Z,977.00
2024-05-09T09:01:19.909Z,979.00
2024-05-09T09:02:19.215Z,978.00
2024-05-09T09:03:19.246Z,979.00
2024-05-09T09:04:18.878Z,977.00
2024-05-09T09:05:18.814Z,977.00
2024-05-09T09:06:18.741Z,979.00
2024-05-09T09:07:18.798Z,982.00
2024-05-09T09:08:18.708Z,981.00
2024-05-09T09:09:18.713Z,980.00
2024-05-09T09:10:28.938Z,979.00
2024-05-09T09:11:19.768Z,976.00
2024-05-09T09:12:18.712Z,975.00
2024-05-09T09:13:18.773Z,973.00
2024-05-09T09:14:18.707Z,975.00
2024-05-09T09:15:18.734Z,977.00
2024-05-09T09:16:18.971Z,978.00
2024-05-09T09:17:18.790Z,977.00
2024-05-09T09:18:19.377Z,977.00
2024-05-09T09:19:18.968Z,976.00
2024-05-09T09:20:25.964Z,977.00
2024-05-09T09:21:19.732Z,977.00
2024-05-09T09:22:18.774Z,976.00
2024-05-09T09:23:18.766Z,976.00
2024-05-09T09:24:18.746Z,975.00
2024-05-09T09:25:18.791Z,973.00
2024-05-09T09:26:18.737Z,970.00
2024-05-09T09:27:18.741Z,969.00
2024-05-09T09:28:18.791Z,969.00
2024-05-09T09:29:18.736Z,971.00
2024-05-09T09:30:31.657Z,972.00
2024-05-09T09:31:19.807Z,971.00
2024-05-09T09:32:18.926Z,971.00
2024-05-09T09:33:18.960Z,973.00
2024-05-09T09:34:19.034Z,971.00
2024-05-09T09:35:18.787Z,971.00
2024-05-09T09:36:18.788Z,971.00
2024-05-09T09:37:18.851Z,969.00
2024-05-09T09:38:18.758Z,972.00
2024-05-09T09:39:18.805Z,974.00
2024-05-09T09:40:22.219Z,971.00
2024-05-09T09:41:19.808Z,972.00
2024-05-09T09:42:18.759Z,972.00
2024-05-09T09:43:18.935Z,974.00
2024-05-09T09:44:18.790Z,972.00
2024-05-09T09:45:18.775Z,973.00
2024-05-09T09:46:18.855Z,975.00
2024-05-09T09:47:19.065Z,975.00
2024-05-09T09:48:18.899Z,976.00
2024-05-09T09:49:19.004Z,977.00
2024-05-09T09:50:27.287Z,978.00
2024-05-09T09:51:19.811Z,977.00
2024-05-09T09:52:18.995Z,979.00
2024-05-09T09:53:18.819Z,978.00
2024-05-09T09:54:18.824Z,975.00
2024-05-09T09:55:18.983Z,972.00
2024-05-09T09:56:18.850Z,974.00
2024-05-09T09:57:18.830Z,972.00
2024-05-09T09:58:18.947Z,973.00
2024-05-09T09:59:18.808Z,974.00
2024-05-09T10:00:24.539Z,975.00
2024-05-09T10:01:20.011Z,975.00
2024-05-09T10:02:19.086Z,977.00
2024-05-09T10:03:19.224Z,977.00
2024-05-09T10:04:19.131Z,976.00
2024-05-09T10:05:19.021Z,976.00
2024-05-09T10:06:18.929Z,977.00
2024-05-09T10:07:18.886Z,975.00
2024-05-09T10:08:18.861Z,975.00
2024-05-09T10:09:18.820Z,975.00
2024-05-09T10:10:26.904Z,972.00
2024-05-09T10:11:20.021Z,972.00
2024-05-09T10:12:18.872Z,971.00
2024-05-09T10:13:19.020Z,973.00
2024-05-09T10:14:18.844Z,975.00
2024-05-09T10:15:18.852Z,978.00
2024-05-09T10:16:19.016Z,980.00
2024-05-09T10:17:18.935Z,984.00
2024-05-09T10:18:19.060Z,982.00
2024-05-09T10:19:19.142Z,980.00
2024-05-09T10:20:24.670Z,976.00
2024-05-09T10:21:19.891Z,973.00
2024-05-09T10:22:18.915Z,975.00
2024-05-09T10:23:18.888Z,974.00
2024-05-09T10:24:18.845Z,976.00
2024-05-09T10:25:18.970Z,976.00
2024-05-09T10:26:18.873Z,976.00
2024-05-09T10:27:18.881Z,976.00
2024-05-09T10:28:18.968Z,974.00
2024-05-09T10:29:18.859Z,974.00
2024-05-09T10:30:26.084Z,975.00
2024-05-09T10:31:19.930Z,976.00
2024-05-09T10:32:19.090Z,976.00
2024-05-09T10:33:19.037Z,975.00
2024-05-09T10:34:19.215Z,973.00
2024-05-09T10:35:18.878Z,975.00
2024-05-09T10:36:18.910Z,978.00
2024-05-09T10:37:18.888Z,977.00
2024-05-09T10:38:18.890Z,976.00
2024-05-09T10:39:18.885Z,972.00
2024-05-09T10:40:26.066Z,971.00
2024-05-09T10:41:19.912Z,971.00
2024-05-09T10:42:18.923Z,970.00
2024-05-09T10:43:18.967Z,971.00
2024-05-09T10:44:18.919Z,970.00
2024-05-09T10:45:18.891Z,970.00
2024-05-09T10:46:19.288Z,969.00
2024-05-09T10:47:18.976Z,970.00
2024-05-09T10:48:19.042Z,970.00
2024-05-09T10:49:19.053Z,967.00
2024-05-09T10:50:25.667Z,965.00
2024-05-09T10:51:19.991Z,965.00
2024-05-09T10:52:19.032Z,968.00
2024-05-09T10:53:18.916Z,968.00
2024-05-09T10:54:18.898Z,964.00
2024-05-09T10:55:19.018Z,964.00
2024-05-09T10:56:18.937Z,967.00
2024-05-09T10:57:18.917Z,969.00
2024-05-09T10:58:19.046Z,968.00
2024-05-09T10:59:18.913Z,969.00
2024-05-09T11:00:27.386Z,972.00
2024-05-09T11:01:20.045Z,972.00
2024-05-09T11:02:19.033Z,974.00
2024-05-09T11:03:18.983Z,974.00
2024-05-09T11:04:19.091Z,971.00
2024-05-09T11:05:19.224Z,971.00
2024-05-09T11:06:18.952Z,968.00
2024-05-09T11:07:19.028Z,966.00
2024-05-09T11:08:18.955Z,960.00
2024-05-09T11:09:18.966Z,958.00
2024-05-09T11:10:27.243Z,959.00
2024-05-09T11:11:19.973Z,958.00
2024-05-09T11:12:20.627Z,962.00
2024-05-09T11:13:19.081Z,964.00
2024-05-09T11:14:18.982Z,965.00
2024-05-09T11:15:19.083Z,966.00
2024-05-09T11:16:19.397Z,967.00
2024-05-09T11:17:19.186Z,968.00
2024-05-09T11:18:21.002Z,965.00
2024-05-09T11:19:19.414Z,966.00
2024-05-09T11:20:26.776Z,969.00
2024-05-09T11:21:20.101Z,968.00
2024-05-09T11:22:19.235Z,969.00
2024-05-09T11:23:19.099Z,969.00
2024-05-09T11:24:19.102Z,972.00
2024-05-09T11:25:19.288Z,970.00
2024-05-09T11:26:19.110Z,968.00
2024-05-09T11:27:19.127Z,968.00
2024-05-09T11:28:19.238Z,967.00
2024-05-09T11:29:19.826Z,971.00
2024-05-09T11:31:19.458Z,972.00
2024-05-09T11:32:19.179Z,969.00
2024-05-09T11:33:19.302Z,969.00
2024-05-09T11:34:19.257Z,970.00
2024-05-09T11:35:19.137Z,970.00
2024-05-09T11:36:19.125Z,969.00
2024-05-09T11:37:19.310Z,966.00
2024-05-09T11:38:19.135Z,964.00
2024-05-09T11:39:19.126Z,963.00
2024-05-09T11:40:25.305Z,963.00
2024-05-09T11:41:20.146Z,961.00
2024-05-09T11:42:19.156Z,960.00
2024-05-09T11:43:19.324Z,961.00
2024-05-09T11:44:19.151Z,963.00
2024-05-09T11:45:19.136Z,962.00
2024-05-09T11:46:19.268Z,961.00
2024-05-09T11:47:19.193Z,957.00
2024-05-09T11:48:19.287Z,957.00
2024-05-09T11:49:19.269Z,956.00
2024-05-09T11:50:27.117Z,958.00
2024-05-09T11:51:20.156Z,959.00
2024-05-09T11:52:19.177Z,959.00
2024-05-09T11:53:19.170Z,959.00
2024-05-09T11:54:19.141Z,960.00
2024-05-09T11:55:19.327Z,959.00
2024-05-09T11:56:19.172Z,959.00
2024-05-09T11:57:19.174Z,962.00
2024-05-09T11:58:19.548Z,962.00
2024-05-09T11:59:19.181Z,958.00
2024-05-09T12:00:28.981Z,955.00
2024-05-09T12:01:21.031Z,955.00
2024-05-09T12:02:19.428Z,956.00
2024-05-09T12:03:19.453Z,959.00
2024-05-09T12:04:19.550Z,957.00
2024-05-09T12:05:19.716Z,959.00
2024-05-09T12:06:19.359Z,957.00
2024-05-09T12:07:19.441Z,956.00
2024-05-09T12:08:19.422Z,957.00
2024-05-09T12:09:19.500Z,958.00
2024-05-09T12:10:22.563Z,956.00
2024-05-09T12:11:20.568Z,957.00
2024-05-09T12:12:19.469Z,958.00
2024-05-09T12:13:19.590Z,960.00
2024-05-09T12:14:19.513Z,959.00
2024-05-09T12:15:19.518Z,958.00
2024-05-09T12:16:19.732Z,957.00
2024-05-09T12:17:19.568Z,954.00
2024-05-09T12:18:19.520Z,949.00
2024-05-09T12:19:19.520Z,950.00
2024-05-09T12:20:28.334Z,950.00
2024-05-09T12:21:20.489Z,951.00
2024-05-09T12:22:19.494Z,950.00
2024-05-09T12:23:19.489Z,952.00
2024-05-09T12:24:19.470Z,950.00
2024-05-09T12:25:19.545Z,949.00